sensor_id;sensor_type;location;lat;lon;timestamp;pressure;altitude;pressure_sealevel;temperature;humidity
72685;BME280;61365;52.162;4.500;2022-12-07T00:01:32;101854.28;;;5.09;90.65
72685;BME280;61365;52.162;4.500;2022-12-07T00:04:02;101865.41;;;5.05;91.68
72685;BME280;61365;52.162;4.500;2022-12-07T00:06:41;101867.63;;;5.19;91.57
72685;BME280;61365;52.162;4.500;2022-12-07T00:09:14;101877.28;;;5.21;91.25
72685;BME280;61365;52.162;4.500;2022-12-07T00:11:43;101870.84;;;5.36;90.21
72685;BME280;61365;52.162;4.500;2022-12-07T00:14:13;101874.34;;;5.61;87.36
72685;BME280;61365;52.162;4.500;2022-12-07T00:16:41;101869.88;;;5.56;87.55
72685;BME280;61365;52.162;4.500;2022-12-07T00:19:10;101859.78;;;5.66;84.54
72685;BME280;61365;52.162;4.500;2022-12-07T00:21:38;101850.19;;;5.65;83.75
72685;BME280;61365;52.162;4.500;2022-12-07T00:24:05;101843.28;;;5.41;85.80
72685;BME280;61365;52.162;4.500;2022-12-07T00:26:34;101843.84;;;5.32;87.11
72685;BME280;61365;52.162;4.500;2022-12-07T00:29:09;101840.56;;;5.38;87.31
72685;BME280;61365;52.162;4.500;2022-12-07T00:31:40;101850.94;;;5.36;87.62
72685;BME280;61365;52.162;4.500;2022-12-07T00:34:07;101852.09;;;5.45;88.26
72685;BME280;61365;52.162;4.500;2022-12-07T00:36:39;101852.25;;;5.74;85.57
72685;BME280;61365;52.162;4.500;2022-12-07T00:39:05;101854.34;;;5.84;84.60
72685;BME280;61365;52.162;4.500;2022-12-07T00:41:31;101862.09;;;5.82;85.53
72685;BME280;61365;52.162;4.500;2022-12-07T00:43:58;101861.06;;;5.53;89.16
72685;BME280;61365;52.162;4.500;2022-12-07T00:46:25;101853.75;;;5.43;90.33
72685;BME280;61365;52.162;4.500;2022-12-07T00:48:53;101851.50;;;5.28;90.55
72685;BME280;61365;52.162;4.500;2022-12-07T00:51:22;101847.97;;;5.27;90.43
72685;BME280;61365;52.162;4.500;2022-12-07T00:53:50;101845.50;;;5.30;89.72
72685;BME280;61365;52.162;4.500;2022-12-07T00:56:25;101848.56;;;5.20;88.55
72685;BME280;61365;52.162;4.500;2022-12-07T00:58:55;101854.91;;;5.26;88.86
72685;BME280;61365;52.162;4.500;2022-12-07T01:01:27;101845.22;;;5.47;86.68
72685;BME280;61365;52.162;4.500;2022-12-07T01:03:56;101852.53;;;5.57;85.83
72685;BME280;61365;52.162;4.500;2022-12-07T01:06:24;101845.44;;;5.77;83.52
72685;BME280;61365;52.162;4.500;2022-12-07T01:08:51;101845.97;;;5.93;83.40
72685;BME280;61365;52.162;4.500;2022-12-07T01:11:21;101842.53;;;5.69;84.53
72685;BME280;61365;52.162;4.500;2022-12-07T01:13:51;101843.00;;;5.57;82.64
72685;BME280;61365;52.162;4.500;2022-12-07T01:16:20;101847.25;;;5.80;81.67
72685;BME280;61365;52.162;4.500;2022-12-07T01:18:50;101853.28;;;5.79;82.35
72685;BME280;61365;52.162;4.500;2022-12-07T01:21:26;101847.56;;;5.63;83.52
72685;BME280;61365;52.162;4.500;2022-12-07T01:23:57;101850.91;;;5.61;84.14
72685;BME280;61365;52.162;4.500;2022-12-07T01:26:25;101851.09;;;5.41;85.38
72685;BME280;61365;52.162;4.500;2022-12-07T01:28:52;101862.94;;;5.33;86.47
72685;BME280;61365;52.162;4.500;2022-12-07T01:31:23;101860.03;;;5.25;88.73
72685;BME280;61365;52.162;4.500;2022-12-07T01:33:53;101859.28;;;5.52;85.98
72685;BME280;61365;52.162;4.500;2022-12-07T01:36:26;101866.28;;;5.29;86.97
72685;BME280;61365;52.162;4.500;2022-12-07T01:39:00;101863.06;;;5.60;84.50
72685;BME280;61365;52.162;4.500;2022-12-07T01:41:31;101858.91;;;5.65;84.12
72685;BME280;61365;52.162;4.500;2022-12-07T01:46:52;101837.59;;;5.51;84.70
72685;BME280;61365;52.162;4.500;2022-12-07T01:49:31;101842.84;;;5.53;83.85
72685;BME280;61365;52.162;4.500;2022-12-07T01:52:23;101840.91;;;5.00;86.68
72685;BME280;61365;52.162;4.500;2022-12-07T01:55:01;101835.53;;;4.95;88.27
72685;BME280;61365;52.162;4.500;2022-12-07T01:57:33;101833.88;;;4.98;89.09
72685;BME280;61365;52.162;4.500;2022-12-07T02:00:05;101835.88;;;5.05;89.13
72685;BME280;61365;52.162;4.500;2022-12-07T02:02:35;101836.91;;;5.08;89.24
72685;BME280;61365;52.162;4.500;2022-12-07T02:05:06;101831.19;;;5.19;88.59
72685;BME280;61365;52.162;4.500;2022-12-07T02:07:34;101828.50;;;5.40;87.33
72685;BME280;61365;52.162;4.500;2022-12-07T02:12:59;101839.00;;;5.19;86.68
72685;BME280;61365;52.162;4.500;2022-12-07T02:19:09;101838.28;;;5.23;89.71
72685;BME280;61365;52.162;4.500;2022-12-07T02:27:46;101836.97;;;5.34;91.37
72685;BME280;61365;52.162;4.500;2022-12-07T02:30:20;101828.06;;;5.28;91.02
72685;BME280;61365;52.162;4.500;2022-12-07T02:35:42;101818.53;;;5.28;91.44
72685;BME280;61365;52.162;4.500;2022-12-07T02:38:47;101818.91;;;5.39;90.75
72685;BME280;61365;52.162;4.500;2022-12-07T02:41:29;101815.13;;;5.31;90.39
72685;BME280;61365;52.162;4.500;2022-12-07T02:44:08;101824.41;;;5.22;90.11
72685;BME280;61365;52.162;4.500;2022-12-07T02:47:01;101819.13;;;5.45;89.44
72685;BME280;61365;52.162;4.500;2022-12-07T02:49:33;101821.28;;;5.33;89.15
72685;BME280;61365;52.162;4.500;2022-12-07T02:52:00;101814.69;;;5.18;90.79
72685;BME280;61365;52.162;4.500;2022-12-07T02:54:26;101816.09;;;5.08;91.57
72685;BME280;61365;52.162;4.500;2022-12-07T02:59:58;101829.09;;;5.08;92.99
72685;BME280;61365;52.162;4.500;2022-12-07T03:11:25;101822.22;;;5.59;87.20
72685;BME280;61365;52.162;4.500;2022-12-07T03:14:13;101824.06;;;5.62;84.39
72685;BME280;61365;52.162;4.500;2022-12-07T03:17:10;101832.84;;;5.39;86.45
72685;BME280;61365;52.162;4.500;2022-12-07T03:19:42;101819.25;;;5.24;87.58
72685;BME280;61365;52.162;4.500;2022-12-07T03:22:13;101814.59;;;5.15;88.48
72685;BME280;61365;52.162;4.500;2022-12-07T03:24:50;101813.63;;;5.13;88.30
72685;BME280;61365;52.162;4.500;2022-12-07T03:27:25;101815.38;;;5.13;88.16
72685;BME280;61365;52.162;4.500;2022-12-07T03:30:03;101805.06;;;5.16;89.10
72685;BME280;61365;52.162;4.500;2022-12-07T03:32:38;101810.28;;;5.16;88.68
72685;BME280;61365;52.162;4.500;2022-12-07T03:35:22;101811.97;;;5.15;88.09
72685;BME280;61365;52.162;4.500;2022-12-07T03:37:57;101804.28;;;5.18;87.59
72685;BME280;61365;52.162;4.500;2022-12-07T03:43:00;101801.41;;;5.10;88.17
72685;BME280;61365;52.162;4.500;2022-12-07T03:45:40;101802.13;;;5.31;86.46
72685;BME280;61365;52.162;4.500;2022-12-07T03:48:16;101798.97;;;5.15;85.47
72685;BME280;61365;52.162;4.500;2022-12-07T03:51:01;101792.59;;;5.07;86.74
72685;BME280;61365;52.162;4.500;2022-12-07T03:53:49;101801.72;;;5.20;85.47
72685;BME280;61365;52.162;4.500;2022-12-07T03:56:22;101793.78;;;5.15;85.79
72685;BME280;61365;52.162;4.500;2022-12-07T03:58:49;101792.06;;;5.16;84.30
72685;BME280;61365;52.162;4.500;2022-12-07T04:01:18;101796.44;;;5.17;84.34
72685;BME280;61365;52.162;4.500;2022-12-07T04:03:44;101798.69;;;5.32;84.29
72685;BME280;61365;52.162;4.500;2022-12-07T04:06:11;101783.25;;;5.36;85.83
72685;BME280;61365;52.162;4.500;2022-12-07T04:08:38;101789.44;;;5.40;84.24
72685;BME280;61365;52.162;4.500;2022-12-07T04:11:04;101787.00;;;5.45;85.02
72685;BME280;61365;52.162;4.500;2022-12-07T04:13:31;101782.25;;;5.33;83.14
72685;BME280;61365;52.162;4.500;2022-12-07T04:16:17;101789.94;;;5.54;79.96
72685;BME280;61365;52.162;4.500;2022-12-07T04:18:43;101796.56;;;5.70;77.26
72685;BME280;61365;52.162;4.500;2022-12-07T04:21:09;101803.78;;;6.03;75.63
72685;BME280;61365;52.162;4.500;2022-12-07T04:23:36;101794.19;;;5.76;77.80
72685;BME280;61365;52.162;4.500;2022-12-07T04:26:05;101791.41;;;5.71;79.02
72685;BME280;61365;52.162;4.500;2022-12-07T04:28:31;101787.78;;;5.42;80.86
72685;BME280;61365;52.162;4.500;2022-12-07T04:30:58;101792.06;;;5.40;82.02
72685;BME280;61365;52.162;4.500;2022-12-07T04:33:24;101782.25;;;5.33;82.74
72685;BME280;61365;52.162;4.500;2022-12-07T04:35:50;101780.66;;;5.36;82.80
72685;BME280;61365;52.162;4.500;2022-12-07T04:38:17;101787.50;;;5.10;84.61
72685;BME280;61365;52.162;4.500;2022-12-07T04:40:43;101778.44;;;4.99;85.91
72685;BME280;61365;52.162;4.500;2022-12-07T04:43:09;101788.00;;;5.00;87.23
72685;BME280;61365;52.162;4.500;2022-12-07T04:45:35;101790.09;;;5.10;86.90
72685;BME280;61365;52.162;4.500;2022-12-07T04:48:02;101782.69;;;5.21;86.45
72685;BME280;61365;52.162;4.500;2022-12-07T04:50:28;101769.63;;;5.19;86.06
72685;BME280;61365;52.162;4.500;2022-12-07T04:52:55;101770.34;;;4.91;87.02
72685;BME280;61365;52.162;4.500;2022-12-07T04:55:21;101760.53;;;4.84;85.61
72685;BME280;61365;52.162;4.500;2022-12-07T04:57:47;101769.03;;;4.79;86.23
72685;BME280;61365;52.162;4.500;2022-12-07T05:00:14;101769.00;;;4.78;85.32
72685;BME280;61365;52.162;4.500;2022-12-07T05:02:40;101763.72;;;4.76;85.21
72685;BME280;61365;52.162;4.500;2022-12-07T05:05:07;101756.91;;;4.80;85.34
72685;BME280;61365;52.162;4.500;2022-12-07T05:07:33;101768.22;;;4.80;85.04
72685;BME280;61365;52.162;4.500;2022-12-07T05:09:59;101756.09;;;4.81;85.64
72685;BME280;61365;52.162;4.500;2022-12-07T05:12:26;101757.16;;;4.86;85.34
72685;BME280;61365;52.162;4.500;2022-12-07T05:14:52;101758.09;;;4.88;85.87
72685;BME280;61365;52.162;4.500;2022-12-07T05:17:18;101759.13;;;5.16;83.34
72685;BME280;61365;52.162;4.500;2022-12-07T05:19:45;101759.94;;;4.91;84.61
72685;BME280;61365;52.162;4.500;2022-12-07T05:22:11;101760.97;;;4.96;85.03
72685;BME280;61365;52.162;4.500;2022-12-07T05:24:39;101753.81;;;4.89;85.45
72685;BME280;61365;52.162;4.500;2022-12-07T05:27:05;101758.69;;;4.81;85.00
72685;BME280;61365;52.162;4.500;2022-12-07T05:29:32;101767.09;;;4.74;84.38
72685;BME280;61365;52.162;4.500;2022-12-07T05:31:58;101769.84;;;4.77;84.28
72685;BME280;61365;52.162;4.500;2022-12-07T05:34:24;101765.78;;;4.85;83.56
72685;BME280;61365;52.162;4.500;2022-12-07T05:36:50;101773.00;;;5.41;78.86
72685;BME280;61365;52.162;4.500;2022-12-07T05:39:17;101766.91;;;5.16;80.00
72685;BME280;61365;52.162;4.500;2022-12-07T05:41:43;101768.16;;;5.02;81.34
72685;BME280;61365;52.162;4.500;2022-12-07T05:44:28;101769.91;;;4.80;83.09
72685;BME280;61365;52.162;4.500;2022-12-07T05:46:54;101767.97;;;4.74;83.13
72685;BME280;61365;52.162;4.500;2022-12-07T05:49:21;101768.94;;;4.76;83.78
72685;BME280;61365;52.162;4.500;2022-12-07T05:51:47;101766.91;;;4.69;85.38
72685;BME280;61365;52.162;4.500;2022-12-07T05:54:13;101767.94;;;4.73;84.65
72685;BME280;61365;52.162;4.500;2022-12-07T05:56:40;101763.16;;;4.61;85.35
72685;BME280;61365;52.162;4.500;2022-12-07T05:59:07;101757.84;;;4.58;85.97
72685;BME280;61365;52.162;4.500;2022-12-07T06:01:50;101760.91;;;4.47;86.75
72685;BME280;61365;52.162;4.500;2022-12-07T06:04:22;101754.03;;;4.49;86.39
72685;BME280;61365;52.162;4.500;2022-12-07T06:06:50;101757.41;;;4.47;86.54
72685;BME280;61365;52.162;4.500;2022-12-07T06:09:18;101765.00;;;4.42;86.64
72685;BME280;61365;52.162;4.500;2022-12-07T06:11:46;101758.00;;;4.40;86.30
72685;BME280;61365;52.162;4.500;2022-12-07T06:14:31;101757.34;;;4.45;86.63
72685;BME280;61365;52.162;4.500;2022-12-07T06:16:58;101750.63;;;4.50;86.57
72685;BME280;61365;52.162;4.500;2022-12-07T06:19:24;101749.09;;;4.56;85.87
72685;BME280;61365;52.162;4.500;2022-12-07T06:21:51;101752.25;;;4.71;86.09
72685;BME280;61365;52.162;4.500;2022-12-07T06:24:18;101773.19;;;4.74;85.77
72685;BME280;61365;52.162;4.500;2022-12-07T06:26:45;101778.16;;;5.15;84.38
72685;BME280;61365;52.162;4.500;2022-12-07T06:29:12;101778.31;;;5.20;83.44
72685;BME280;61365;52.162;4.500;2022-12-07T06:31:39;101776.47;;;5.16;84.76
72685;BME280;61365;52.162;4.500;2022-12-07T06:34:12;101769.25;;;5.08;85.01
72685;BME280;61365;52.162;4.500;2022-12-07T06:36:41;101767.47;;;5.07;85.60
72685;BME280;61365;52.162;4.500;2022-12-07T06:39:08;101770.06;;;5.07;85.93
72685;BME280;61365;52.162;4.500;2022-12-07T06:41:36;101769.91;;;5.03;86.56
72685;BME280;61365;52.162;4.500;2022-12-07T06:44:04;101773.22;;;4.99;86.21
72685;BME280;61365;52.162;4.500;2022-12-07T06:46:32;101774.81;;;4.95;87.02
72685;BME280;61365;52.162;4.500;2022-12-07T06:49:01;101767.94;;;4.97;86.59
72685;BME280;61365;52.162;4.500;2022-12-07T06:51:28;101772.44;;;5.01;86.54
72685;BME280;61365;52.162;4.500;2022-12-07T06:53:55;101778.56;;;5.02;85.97
72685;BME280;61365;52.162;4.500;2022-12-07T06:56:24;101773.00;;;4.92;85.63
72685;BME280;61365;52.162;4.500;2022-12-07T06:58:50;101773.78;;;4.90;85.93
72685;BME280;61365;52.162;4.500;2022-12-07T07:01:18;101775.34;;;4.86;86.11
72685;BME280;61365;52.162;4.500;2022-12-07T07:03:45;101776.25;;;4.87;86.26
72685;BME280;61365;52.162;4.500;2022-12-07T07:06:13;101774.59;;;4.89;86.63
72685;BME280;61365;52.162;4.500;2022-12-07T07:08:40;101774.78;;;4.93;86.41
72685;BME280;61365;52.162;4.500;2022-12-07T07:11:07;101778.16;;;4.91;85.87
72685;BME280;61365;52.162;4.500;2022-12-07T07:13:35;101780.69;;;4.89;85.55
72685;BME280;61365;52.162;4.500;2022-12-07T07:16:01;101778.06;;;4.89;85.39
72685;BME280;61365;52.162;4.500;2022-12-07T07:18:29;101776.59;;;4.96;85.20
72685;BME280;61365;52.162;4.500;2022-12-07T07:20:55;101782.84;;;5.01;84.76
72685;BME280;61365;52.162;4.500;2022-12-07T07:23:21;101788.41;;;5.10;84.41
72685;BME280;61365;52.162;4.500;2022-12-07T07:25:48;101775.31;;;5.09;84.50
72685;BME280;61365;52.162;4.500;2022-12-07T07:28:15;101786.63;;;5.34;83.46
72685;BME280;61365;52.162;4.500;2022-12-07T07:30:42;101793.16;;;5.22;83.99
72685;BME280;61365;52.162;4.500;2022-12-07T07:33:09;101779.34;;;5.23;83.98
72685;BME280;61365;52.162;4.500;2022-12-07T07:35:37;101781.53;;;5.61;81.91
72685;BME280;61365;52.162;4.500;2022-12-07T07:38:05;101776.53;;;5.43;82.40
72685;BME280;61365;52.162;4.500;2022-12-07T07:40:32;101783.72;;;5.24;83.56
72685;BME280;61365;52.162;4.500;2022-12-07T07:42:58;101776.03;;;5.05;84.30
72685;BME280;61365;52.162;4.500;2022-12-07T07:45:26;101775.63;;;4.94;85.32
72685;BME280;61365;52.162;4.500;2022-12-07T07:47:53;101781.59;;;4.90;85.43
72685;BME280;61365;52.162;4.500;2022-12-07T07:50:20;101781.50;;;4.88;85.52
72685;BME280;61365;52.162;4.500;2022-12-07T07:52:47;101783.63;;;4.99;85.38
72685;BME280;61365;52.162;4.500;2022-12-07T07:55:14;101782.41;;;4.89;85.45
72685;BME280;61365;52.162;4.500;2022-12-07T07:57:40;101778.91;;;4.88;85.58
72685;BME280;61365;52.162;4.500;2022-12-07T08:00:10;101786.53;;;4.84;85.08
72685;BME280;61365;52.162;4.500;2022-12-07T08:02:39;101790.78;;;5.04;83.62
72685;BME280;61365;52.162;4.500;2022-12-07T08:05:06;101795.19;;;5.30;81.17
72685;BME280;61365;52.162;4.500;2022-12-07T08:07:32;101794.09;;;5.49;79.78
72685;BME280;61365;52.162;4.500;2022-12-07T08:09:59;101795.25;;;5.33;82.40
72685;BME280;61365;52.162;4.500;2022-12-07T08:12:25;101783.22;;;5.61;80.75
72685;BME280;61365;52.162;4.500;2022-12-07T08:14:52;101784.41;;;5.70;79.79
72685;BME280;61365;52.162;4.500;2022-12-07T08:17:18;101781.03;;;5.47;79.68
72685;BME280;61365;52.162;4.500;2022-12-07T08:19:45;101787.19;;;5.25;80.04
72685;BME280;61365;52.162;4.500;2022-12-07T08:22:11;101780.38;;;5.04;81.56
72685;BME280;61365;52.162;4.500;2022-12-07T08:24:37;101785.88;;;4.89;82.67
72685;BME280;61365;52.162;4.500;2022-12-07T08:27:04;101785.75;;;4.86;84.42
72685;BME280;61365;52.162;4.500;2022-12-07T08:29:30;101786.13;;;4.73;85.37
72685;BME280;61365;52.162;4.500;2022-12-07T08:31:57;101781.19;;;4.79;86.09
72685;BME280;61365;52.162;4.500;2022-12-07T08:34:23;101789.44;;;4.91;86.42
72685;BME280;61365;52.162;4.500;2022-12-07T08:36:49;101784.84;;;5.08;86.19
72685;BME280;61365;52.162;4.500;2022-12-07T08:39:16;101780.09;;;5.21;86.07
72685;BME280;61365;52.162;4.500;2022-12-07T08:41:42;101792.56;;;5.30;85.26
72685;BME280;61365;52.162;4.500;2022-12-07T08:44:09;101783.31;;;5.38;84.95
72685;BME280;61365;52.162;4.500;2022-12-07T08:46:39;101783.03;;;5.30;85.05
72685;BME280;61365;52.162;4.500;2022-12-07T08:49:24;101787.56;;;5.36;84.53
72685;BME280;61365;52.162;4.500;2022-12-07T08:51:56;101787.56;;;5.36;84.23
72685;BME280;61365;52.162;4.500;2022-12-07T08:54:23;101793.34;;;5.51;84.19
72685;BME280;61365;52.162;4.500;2022-12-07T08:56:50;101787.38;;;5.55;83.49
72685;BME280;61365;52.162;4.500;2022-12-07T08:59:19;101790.44;;;5.44;83.75
72685;BME280;61365;52.162;4.500;2022-12-07T09:01:46;101791.34;;;5.44;83.72
72685;BME280;61365;52.162;4.500;2022-12-07T09:04:12;101785.78;;;5.59;83.52
72685;BME280;61365;52.162;4.500;2022-12-07T09:06:39;101792.75;;;5.60;83.32
72685;BME280;61365;52.162;4.500;2022-12-07T09:09:08;101797.06;;;5.60;83.31
72685;BME280;61365;52.162;4.500;2022-12-07T09:11:36;101789.16;;;5.56;83.33
72685;BME280;61365;52.162;4.500;2022-12-07T09:14:02;101795.38;;;5.60;83.67
72685;BME280;61365;52.162;4.500;2022-12-07T09:16:29;101784.28;;;5.66;83.80
72685;BME280;61365;52.162;4.500;2022-12-07T09:18:55;101781.81;;;5.70;83.90
72685;BME280;61365;52.162;4.500;2022-12-07T09:21:21;101782.84;;;5.76;83.37
72685;BME280;61365;52.162;4.500;2022-12-07T09:23:48;101786.41;;;5.78;83.55
72685;BME280;61365;52.162;4.500;2022-12-07T09:26:14;101783.53;;;5.70;83.19
72685;BME280;61365;52.162;4.500;2022-12-07T09:28:41;101776.19;;;5.84;82.95
72685;BME280;61365;52.162;4.500;2022-12-07T09:31:07;101781.63;;;6.16;83.02
72685;BME280;61365;52.162;4.500;2022-12-07T09:33:33;101782.09;;;6.31;81.92
72685;BME280;61365;52.162;4.500;2022-12-07T09:36:00;101784.09;;;6.68;81.40
72685;BME280;61365;52.162;4.500;2022-12-07T09:38:26;101781.22;;;6.89;81.70
72685;BME280;61365;52.162;4.500;2022-12-07T09:40:54;101770.34;;;7.04;80.07
72685;BME280;61365;52.162;4.500;2022-12-07T09:43:23;101780.03;;;7.08;79.07
72685;BME280;61365;52.162;4.500;2022-12-07T09:45:54;101771.38;;;6.79;80.36
72685;BME280;61365;52.162;4.500;2022-12-07T09:48:34;101774.91;;;6.81;80.50
72685;BME280;61365;52.162;4.500;2022-12-07T09:51:19;101775.91;;;6.57;80.84
72685;BME280;61365;52.162;4.500;2022-12-07T09:53:49;101770.97;;;6.37;81.35
72685;BME280;61365;52.162;4.500;2022-12-07T09:56:18;101771.72;;;6.33;82.14
72685;BME280;61365;52.162;4.500;2022-12-07T09:58:46;101772.66;;;6.64;81.26
72685;BME280;61365;52.162;4.500;2022-12-07T10:01:19;101765.66;;;6.92;79.77
72685;BME280;61365;52.162;4.500;2022-12-07T10:03:54;101770.84;;;6.90;80.67
72685;BME280;61365;52.162;4.500;2022-12-07T10:06:24;101766.63;;;6.96;79.64
72685;BME280;61365;52.162;4.500;2022-12-07T10:08:51;101771.00;;;6.97;77.84
72685;BME280;61365;52.162;4.500;2022-12-07T10:11:17;101765.97;;;6.72;78.26
72685;BME280;61365;52.162;4.500;2022-12-07T10:13:46;101764.84;;;6.95;77.91
72685;BME280;61365;52.162;4.500;2022-12-07T10:18:51;101755.25;;;6.63;78.20
72685;BME280;61365;52.162;4.500;2022-12-07T10:21:20;101751.19;;;6.73;78.43
72685;BME280;61365;52.162;4.500;2022-12-07T10:26:50;101751.25;;;7.05;77.91
72685;BME280;61365;52.162;4.500;2022-12-07T10:29:22;101751.41;;;7.11;77.21
72685;BME280;61365;52.162;4.500;2022-12-07T10:32:00;101744.44;;;7.10;77.16
72685;BME280;61365;52.162;4.500;2022-12-07T10:34:32;101744.22;;;7.02;79.23
72685;BME280;61365;52.162;4.500;2022-12-07T10:42:22;101732.03;;;7.03;80.19
72685;BME280;61365;52.162;4.500;2022-12-07T10:45:14;101729.19;;;7.59;78.04
72685;BME280;61365;52.162;4.500;2022-12-07T10:51:19;101719.00;;;8.45;71.67
72685;BME280;61365;52.162;4.500;2022-12-07T10:54:33;101708.53;;;8.45;72.26
72685;BME280;61365;52.162;4.500;2022-12-07T11:00:17;101704.63;;;8.26;73.40
72685;BME280;61365;52.162;4.500;2022-12-07T11:05:58;101699.00;;;8.47;70.50
72685;BME280;61365;52.162;4.500;2022-12-07T11:11:52;101703.34;;;7.36;70.77
72685;BME280;61365;52.162;4.500;2022-12-07T11:14:46;101701.25;;;7.57;68.76
72685;BME280;61365;52.162;4.500;2022-12-07T11:17:48;101694.09;;;7.49;70.53
72685;BME280;61365;52.162;4.500;2022-12-07T11:23:18;101689.72;;;7.84;69.69
72685;BME280;61365;52.162;4.500;2022-12-07T11:26:32;101687.97;;;7.84;67.99
72685;BME280;61365;52.162;4.500;2022-12-07T11:35:24;101683.94;;;7.60;70.41
72685;BME280;61365;52.162;4.500;2022-12-07T11:38:28;101686.00;;;7.39;72.72
72685;BME280;61365;52.162;4.500;2022-12-07T11:41:05;101685.69;;;7.26;72.76
72685;BME280;61365;52.162;4.500;2022-12-07T11:44:05;101682.25;;;7.27;73.44
72685;BME280;61365;52.162;4.500;2022-12-07T11:52:20;101676.53;;;7.42;73.95
72685;BME280;61365;52.162;4.500;2022-12-07T11:54:57;101674.22;;;7.55;74.24
72685;BME280;61365;52.162;4.500;2022-12-07T11:57:41;101681.97;;;7.51;74.57
72685;BME280;61365;52.162;4.500;2022-12-07T12:00:15;101666.31;;;7.51;74.44
72685;BME280;61365;52.162;4.500;2022-12-07T12:05:59;101661.91;;;7.15;76.60
72685;BME280;61365;52.162;4.500;2022-12-07T12:08:36;101652.41;;;7.17;75.95
72685;BME280;61365;52.162;4.500;2022-12-07T12:20:13;101649.13;;;7.61;76.78
72685;BME280;61365;52.162;4.500;2022-12-07T12:22:52;101642.50;;;7.76;76.41
72685;BME280;61365;52.162;4.500;2022-12-07T12:25:31;101639.69;;;7.66;76.96
72685;BME280;61365;52.162;4.500;2022-12-07T12:28:05;101634.88;;;7.85;75.58
72685;BME280;61365;52.162;4.500;2022-12-07T12:30:33;101634.22;;;7.94;75.00
72685;BME280;61365;52.162;4.500;2022-12-07T12:33:26;101638.78;;;8.04;74.39
72685;BME280;61365;52.162;4.500;2022-12-07T12:47:03;101624.41;;;7.47;78.32
72685;BME280;61365;52.162;4.500;2022-12-07T12:50:15;101626.59;;;7.65;73.02
72685;BME280;61365;52.162;4.500;2022-12-07T12:59:29;101608.69;;;7.45;75.34
72685;BME280;61365;52.162;4.500;2022-12-07T13:15:47;101591.28;;;7.09;72.73
72685;BME280;61365;52.162;4.500;2022-12-07T13:20:58;101580.44;;;7.29;71.59
72685;BME280;61365;52.162;4.500;2022-12-07T13:23:37;101575.03;;;7.21;73.52
72685;BME280;61365;52.162;4.500;2022-12-07T13:31:49;101588.03;;;6.84;71.98
72685;BME280;61365;52.162;4.500;2022-12-07T13:34:36;101585.41;;;7.18;69.83
72685;BME280;61365;52.162;4.500;2022-12-07T13:37:31;101588.34;;;6.97;72.73
72685;BME280;61365;52.162;4.500;2022-12-07T13:40:01;101567.81;;;7.11;67.58
72685;BME280;61365;52.162;4.500;2022-12-07T13:42:44;101569.09;;;6.91;67.62
72685;BME280;61365;52.162;4.500;2022-12-07T13:45:23;101559.00;;;6.72;69.70
72685;BME280;61365;52.162;4.500;2022-12-07T13:48:47;101557.47;;;6.79;70.86
72685;BME280;61365;52.162;4.500;2022-12-07T13:51:34;101551.72;;;6.60;72.98
72685;BME280;61365;52.162;4.500;2022-12-07T13:54:10;101548.53;;;6.70;71.91
72685;BME280;61365;52.162;4.500;2022-12-07T13:56:38;101548.78;;;6.80;72.03
72685;BME280;61365;52.162;4.500;2022-12-07T13:59:14;101553.94;;;6.78;74.55
72685;BME280;61365;52.162;4.500;2022-12-07T14:01:46;101550.19;;;6.67;74.14
72685;BME280;61365;52.162;4.500;2022-12-07T14:04:30;101547.78;;;6.74;74.81
72685;BME280;61365;52.162;4.500;2022-12-07T14:07:27;101547.66;;;6.70;74.34
72685;BME280;61365;52.162;4.500;2022-12-07T14:12:22;101545.59;;;6.58;74.03
72685;BME280;61365;52.162;4.500;2022-12-07T14:14:50;101541.47;;;6.66;75.65
72685;BME280;61365;52.162;4.500;2022-12-07T14:17:20;101543.03;;;6.59;74.30
72685;BME280;61365;52.162;4.500;2022-12-07T14:19:59;101538.22;;;6.75;74.18
72685;BME280;61365;52.162;4.500;2022-12-07T14:22:38;101532.78;;;6.66;73.66
72685;BME280;61365;52.162;4.500;2022-12-07T14:25:23;101524.31;;;6.74;73.05
72685;BME280;61365;52.162;4.500;2022-12-07T14:30:26;101514.25;;;6.90;74.32
72685;BME280;61365;52.162;4.500;2022-12-07T14:33:00;101512.59;;;6.94;75.20
72685;BME280;61365;52.162;4.500;2022-12-07T14:35:29;101513.50;;;6.94;74.98
72685;BME280;61365;52.162;4.500;2022-12-07T14:38:00;101514.44;;;6.98;75.19
72685;BME280;61365;52.162;4.500;2022-12-07T14:40:28;101510.06;;;6.97;75.90
72685;BME280;61365;52.162;4.500;2022-12-07T14:43:01;101505.91;;;6.70;74.55
72685;BME280;61365;52.162;4.500;2022-12-07T14:45:30;101504.06;;;6.99;73.71
72685;BME280;61365;52.162;4.500;2022-12-07T14:47:57;101505.16;;;7.09;71.10
72685;BME280;61365;52.162;4.500;2022-12-07T14:50:23;101509.09;;;6.91;72.07
72685;BME280;61365;52.162;4.500;2022-12-07T14:52:54;101501.19;;;6.88;71.23
72685;BME280;61365;52.162;4.500;2022-12-07T14:55:29;101509.56;;;7.12;68.15
72685;BME280;61365;52.162;4.500;2022-12-07T14:57:57;101505.91;;;7.05;69.40
72685;BME280;61365;52.162;4.500;2022-12-07T15:00:26;101504.66;;;6.89;71.53
72685;BME280;61365;52.162;4.500;2022-12-07T15:02:53;101501.97;;;6.86;71.31
72685;BME280;61365;52.162;4.500;2022-12-07T15:05:20;101505.22;;;6.75;69.22
72685;BME280;61365;52.162;4.500;2022-12-07T15:07:48;101500.44;;;6.94;67.07
72685;BME280;61365;52.162;4.500;2022-12-07T15:10:25;101499.34;;;6.84;70.37
72685;BME280;61365;52.162;4.500;2022-12-07T15:13:01;101495.53;;;6.71;70.10
72685;BME280;61365;52.162;4.500;2022-12-07T15:15:48;101497.81;;;6.93;67.75
72685;BME280;61365;52.162;4.500;2022-12-07T15:18:16;101498.41;;;6.82;70.37
72685;BME280;61365;52.162;4.500;2022-12-07T15:20:44;101498.66;;;6.91;68.68
72685;BME280;61365;52.162;4.500;2022-12-07T15:23:12;101493.47;;;6.93;69.17
72685;BME280;61365;52.162;4.500;2022-12-07T15:25:43;101490.47;;;6.78;69.85
72685;BME280;61365;52.162;4.500;2022-12-07T15:28:12;101498.00;;;7.02;69.74
72685;BME280;61365;52.162;4.500;2022-12-07T15:30:39;101497.34;;;7.11;68.71
72685;BME280;61365;52.162;4.500;2022-12-07T15:33:11;101498.50;;;6.87;71.27